createdAt,value
2018-07-30T00:00:01.256Z,22.5
2018-07-30T00:00:13.691Z,22.5
2018-07-30T00:00:26.112Z,22.5555555556
2018-07-30T00:00:38.570Z,22.5555555556
2018-07-30T00:00:51.206Z,22.5
2018-07-30T00:01:03.717Z,22.5
2018-07-30T00:01:16.134Z,22.5
2018-07-30T00:01:28.562Z,22.5
2018-07-30T00:01:41.299Z,22.5555555556
2018-07-30T00:01:53.733Z,22.5
2018-07-30T00:02:06.156Z,22.5555555556
2018-07-30T00:02:18.893Z,22.5555555556
2018-07-30T00:02:31.308Z,22.5
2018-07-30T00:02:43.739Z,22.5555555556
2018-07-30T00:02:56.294Z,22.5
2018-07-30T00:03:08.743Z,22.5
2018-07-30T00:03:21.148Z,22.5
2018-07-30T00:03:33.547Z,22.5
2018-07-30T00:03:45.950Z,22.5
2018-07-30T00:03:58.364Z,22.5
2018-07-30T00:04:10.764Z,22.5
2018-07-30T00:04:23.179Z,22.5
2018-07-30T00:04:35.584Z,22.5555555556
2018-07-30T00:04:47.994Z,22.5
2018-07-30T00:05:00.384Z,22.5
2018-07-30T00:05:12.810Z,22.5
2018-07-30T00:05:25.917Z,22.5555555556
2018-07-30T00:05:38.769Z,22.5
2018-07-30T00:05:51.163Z,22.5
2018-07-30T00:06:03.580Z,22.5
2018-07-30T00:06:15.995Z,22.5
2018-07-30T00:06:28.384Z,22.5
2018-07-30T00:06:40.817Z,22.5
2018-07-30T00:06:53.244Z,22.4444444444
2018-07-30T00:07:05.646Z,22.4444444444
2018-07-30T00:07:18.067Z,22.5
2018-07-30T00:07:30.470Z,22.5
2018-07-30T00:07:42.879Z,22.5
2018-07-30T00:07:55.280Z,22.5
2018-07-30T00:08:07.706Z,22.4444444444
2018-07-30T00:08:20.107Z,22.5
2018-07-30T00:08:32.545Z,22.5
2018-07-30T00:08:44.942Z,22.5
2018-07-30T00:08:57.375Z,22.4444444444
2018-07-30T00:09:09.793Z,22.4444444444
2018-07-30T00:09:22.193Z,22.5
2018-07-30T00:09:34.604Z,22.4444444444
2018-07-30T00:09:47.015Z,22.4444444444
2018-07-30T00:09:59.408Z,22.4444444444
2018-07-30T00:10:11.820Z,22.4444444444
2018-07-30T00:10:24.216Z,22.4444444444
2018-07-30T00:10:36.626Z,22.4444444444
2018-07-30T00:10:49.025Z,22.4444444444
2018-07-30T00:11:01.437Z,22.4444444444
2018-07-30T00:11:13.832Z,22.4444444444
2018-07-30T00:11:26.241Z,22.4444444444
2018-07-30T00:11:38.762Z,22.4444444444
2018-07-30T00:11:51.166Z,22.4444444444
2018-07-30T00:12:03.568Z,22.4444444444
2018-07-30T00:12:15.963Z,22.4444444444
2018-07-30T00:12:28.378Z,22.4444444444
2018-07-30T00:12:40.776Z,22.4444444444
2018-07-30T00:12:53.187Z,22.4444444444
2018-07-30T00:13:05.637Z,22.4444444444
2018-07-30T00:13:18.202Z,22.4444444444
2018-07-30T00:13:30.588Z,22.4444444444
2018-07-30T00:13:42.970Z,22.4444444444
2018-07-30T00:13:55.353Z,22.4444444444
2018-07-30T00:14:07.875Z,22.4444444444
2018-07-30T00:14:21.148Z,22.4444444444
2018-07-30T00:14:33.586Z,22.4444444444
2018-07-30T00:14:45.999Z,22.3888888889
2018-07-30T00:14:58.400Z,22.4444444444
2018-07-30T00:15:10.819Z,22.4444444444
2018-07-30T00:15:23.265Z,22.4444444444
2018-07-30T00:15:35.686Z,22.4444444444
2018-07-30T00:15:48.096Z,22.4444444444
2018-07-30T00:16:00.546Z,22.4444444444
2018-07-30T00:16:13.097Z,22.3888888889
2018-07-30T00:16:25.475Z,22.3888888889
2018-07-30T00:16:37.889Z,22.3888888889
2018-07-30T00:16:50.302Z,22.3888888889
2018-07-30T00:17:02.731Z,22.3888888889
2018-07-30T00:17:15.119Z,22.3888888889
2018-07-30T00:17:27.512Z,22.3888888889
2018-07-30T00:17:39.901Z,22.3888888889
2018-07-30T00:17:52.305Z,22.3888888889
2018-07-30T00:18:04.695Z,22.3333333333
2018-07-30T00:18:17.098Z,22.3888888889
2018-07-30T00:18:29.506Z,22.3888888889
2018-07-30T00:18:41.906Z,22.3333333333
2018-07-30T00:18:54.343Z,22.3333333333
2018-07-30T00:19:06.745Z,22.3333333333
2018-07-30T00:19:19.142Z,22.3333333333
2018-07-30T00:19:31.603Z,22.3333333333
2018-07-30T00:19:44.004Z,22.3333333333
2018-07-30T00:19:56.399Z,22.3333333333
2018-07-30T00:20:08.847Z,22.3333333333
2018-07-30T00:20:21.246Z,22.3333333333
2018-07-30T00:20:33.641Z,22.3333333333
2018-07-30T00:20:46.044Z,22.3333333333
2018-07-30T00:20:58.451Z,22.3333333333
2018-07-30T00:21:10.858Z,22.3333333333
2018-07-30T00:21:23.497Z,22.3333333333
2018-07-30T00:21:36.939Z,22.3333333333
2018-07-30T00:21:49.325Z,22.3333333333
2018-07-30T00:22:01.745Z,22.3333333333
2018-07-30T00:22:14.156Z,22.3333333333
2018-07-30T00:22:26.556Z,22.3333333333
2018-07-30T00:22:38.975Z,22.3333333333
2018-07-30T00:22:51.358Z,22.3333333333
2018-07-30T00:23:03.775Z,22.3333333333
2018-07-30T00:23:16.389Z,22.3333333333
2018-07-30T00:23:28.787Z,22.3333333333
2018-07-30T00:23:41.205Z,22.3333333333
2018-07-30T00:23:53.609Z,22.3333333333
2018-07-30T00:24:05.993Z,22.3333333333
2018-07-30T00:24:18.406Z,22.3333333333
2018-07-30T00:24:30.802Z,22.3333333333
2018-07-30T00:24:43.211Z,22.3333333333
2018-07-30T00:24:55.618Z,22.3333333333
2018-07-30T00:25:08.005Z,22.3333333333
2018-07-30T00:25:20.457Z,22.3333333333
2018-07-30T00:25:32.871Z,22.3333333333
2018-07-30T00:25:45.278Z,22.3333333333
2018-07-30T00:25:57.687Z,22.3333333333
2018-07-30T00:26:10.105Z,22.2777777778
2018-07-30T00:26:22.500Z,22.3333333333
2018-07-30T00:26:35.044Z,22.3333333333
2018-07-30T00:26:47.461Z,22.3333333333
2018-07-30T00:26:59.866Z,22.3333333333
2018-07-30T00:27:12.322Z,22.3333333333
2018-07-30T00:27:24.723Z,22.3333333333
2018-07-30T00:27:37.133Z,22.3333333333
2018-07-30T00:27:49.524Z,22.3333333333
2018-07-30T00:28:01.911Z,22.2777777778
2018-07-30T00:28:14.331Z,22.3333333333
2018-07-30T00:28:26.861Z,22.3333333333
2018-07-30T00:28:39.251Z,22.3333333333
2018-07-30T00:28:51.656Z,22.2777777778
2018-07-30T00:29:04.060Z,22.3333333333
2018-07-30T00:29:16.468Z,22.2777777778
2018-07-30T00:29:28.860Z,22.2777777778
2018-07-30T00:29:41.264Z,22.3333333333
2018-07-30T00:29:53.672Z,22.2777777778
2018-07-30T00:30:06.088Z,22.2777777778
2018-07-30T00:30:18.615Z,22.2777777778
2018-07-30T00:30:31.022Z,22.3333333333
2018-07-30T00:30:43.440Z,22.2777777778
2018-07-30T00:30:55.845Z,22.2777777778
2018-07-30T00:31:08.252Z,22.2777777778
2018-07-30T00:31:20.813Z,22.2777777778
2018-07-30T00:31:34.223Z,22.2777777778
2018-07-30T00:31:46.642Z,22.2777777778
2018-07-30T00:31:59.036Z,22.2777777778
2018-07-30T00:32:11.454Z,22.2777777778
2018-07-30T00:32:23.885Z,22.2777777778
2018-07-30T00:32:36.275Z,22.2777777778
2018-07-30T00:32:48.730Z,22.2777777778
2018-07-30T00:33:01.147Z,22.2777777778
2018-07-30T00:33:13.556Z,22.2777777778
2018-07-30T00:33:25.969Z,22.2777777778
2018-07-30T00:33:38.409Z,22.2777777778
2018-07-30T00:33:50.931Z,22.2777777778
2018-07-30T00:34:03.325Z,22.2777777778
2018-07-30T00:34:15.714Z,22.2777777778
2018-07-30T00:34:28.126Z,22.2777777778
2018-07-30T00:34:40.546Z,22.2777777778
2018-07-30T00:34:52.957Z,22.2222222222
2018-07-30T00:35:05.355Z,22.2777777778
2018-07-30T00:35:17.751Z,22.2777777778
2018-07-30T00:35:30.149Z,22.2222222222
2018-07-30T00:35:42.568Z,22.2777777778
2018-07-30T00:35:54.971Z,22.2777777778
2018-07-30T00:36:07.399Z,22.2222222222
2018-07-30T00:36:19.810Z,22.2777777778
2018-07-30T00:36:32.203Z,22.2777777778
2018-07-30T00:36:44.648Z,22.2222222222
2018-07-30T00:36:57.082Z,22.2777777778
2018-07-30T00:37:09.485Z,22.2222222222
2018-07-30T00:37:21.967Z,22.2222222222
2018-07-30T00:37:34.374Z,22.2777777778
2018-07-30T00:37:46.774Z,22.2222222222
2018-07-30T00:37:59.181Z,22.2777777778
2018-07-30T00:38:11.571Z,22.2222222222
2018-07-30T00:38:23.973Z,22.2222222222
2018-07-30T00:38:36.358Z,22.2777777778
2018-07-30T00:38:48.752Z,22.2222222222
2018-07-30T00:39:01.162Z,22.2222222222
2018-07-30T00:39:13.557Z,22.2222222222
2018-07-30T00:39:25.934Z,22.2222222222
2018-07-30T00:39:38.326Z,22.2222222222
2018-07-30T00:39:50.740Z,22.2222222222
2018-07-30T00:40:03.126Z,22.2222222222
2018-07-30T00:40:15.528Z,22.2222222222
2018-07-30T00:40:27.928Z,22.2222222222
2018-07-30T00:40:40.346Z,22.2777777778
2018-07-30T00:40:52.743Z,22.2222222222
2018-07-30T00:41:05.140Z,22.2222222222
2018-07-30T00:41:17.533Z,22.2222222222
2018-07-30T00:41:29.918Z,22.2222222222
2018-07-30T00:41:42.315Z,22.2222222222
2018-07-30T00:41:54.723Z,22.2222222222
2018-07-30T00:42:07.136Z,22.2222222222
2018-07-30T00:42:19.557Z,22.2222222222
2018-07-30T00:42:31.958Z,22.2222222222
2018-07-30T00:42:44.381Z,22.2222222222
2018-07-30T00:42:56.785Z,22.2222222222
2018-07-30T00:43:09.183Z,22.2777777778
2018-07-30T00:43:21.580Z,22.2222222222
2018-07-30T00:43:34.111Z,22.2777777778
2018-07-30T00:43:46.501Z,22.2222222222
2018-07-30T00:43:58.893Z,22.2222222222
2018-07-30T00:44:11.317Z,22.2777777778
2018-07-30T00:44:23.723Z,22.2222222222
2018-07-30T00:44:36.194Z,22.2777777778
2018-07-30T00:44:48.766Z,22.2222222222
2018-07-30T00:45:01.174Z,22.2222222222
2018-07-30T00:45:13.634Z,22.2777777778
2018-07-30T00:45:26.036Z,22.2222222222
2018-07-30T00:45:38.448Z,22.2222222222
2018-07-30T00:45:50.865Z,22.2777777778
2018-07-30T00:46:03.302Z,22.2222222222
2018-07-30T00:46:15.689Z,22.2777777778
2018-07-30T00:46:28.090Z,22.2777777778
2018-07-30T00:46:40.475Z,22.2222222222
2018-07-30T00:46:52.890Z,22.2222222222
2018-07-30T00:47:05.287Z,22.2222222222
2018-07-30T00:47:17.730Z,22.2777777778
2018-07-30T00:47:30.122Z,22.2222222222
2018-07-30T00:47:42.533Z,22.2222222222
2018-07-30T00:47:54.925Z,22.2777777778
2018-07-30T00:48:07.464Z,22.2222222222
2018-07-30T00:48:20.853Z,22.2222222222
2018-07-30T00:48:33.537Z,22.2777777778
2018-07-30T00:48:45.944Z,22.2222222222
2018-07-30T00:48:58.729Z,22.2222222222
2018-07-30T00:49:11.133Z,22.2777777778
2018-07-30T00:49:23.534Z,22.2222222222
2018-07-30T00:49:35.925Z,22.2222222222
2018-07-30T00:49:48.336Z,22.2222222222
2018-07-30T00:50:00.802Z,22.2222222222
2018-07-30T00:50:13.198Z,22.2222222222
2018-07-30T00:50:25.584Z,22.2222222222
2018-07-30T00:50:37.978Z,22.2222222222
2018-07-30T00:50:50.378Z,22.2222222222
2018-07-30T00:51:02.764Z,22.2222222222
2018-07-30T00:51:15.190Z,22.2222222222
2018-07-30T00:51:27.619Z,22.2222222222
2018-07-30T00:51:40.015Z,22.2222222222
2018-07-30T00:51:52.405Z,22.2222222222
2018-07-30T00:52:04.810Z,22.1666666667
2018-07-30T00:52:17.205Z,22.2222222222
2018-07-30T00:52:29.629Z,22.2222222222
2018-07-30T00:52:42.093Z,22.2222222222
2018-07-30T00:52:54.537Z,22.2222222222
2018-07-30T00:53:06.931Z,22.1666666667
2018-07-30T00:53:19.348Z,22.1666666667
2018-07-30T00:53:31.750Z,22.2222222222
2018-07-30T00:53:44.198Z,22.2222222222
2018-07-30T00:53:56.642Z,22.2222222222
2018-07-30T00:54:09.033Z,22.2222222222
2018-07-30T00:54:21.422Z,22.2222222222
2018-07-30T00:54:33.828Z,22.2222222222
2018-07-30T00:54:46.260Z,22.2222222222
2018-07-30T00:54:59.157Z,22.1666666667
2018-07-30T00:55:12.086Z,22.2222222222
2018-07-30T00:55:24.504Z,22.2222222222
2018-07-30T00:55:36.935Z,22.1666666667
2018-07-30T00:55:49.332Z,22.2222222222
2018-07-30T00:56:01.741Z,22.1666666667
2018-07-30T00:56:14.289Z,22.1666666667
2018-07-30T00:56:26.677Z,22.1666666667
2018-07-30T00:56:39.090Z,22.2222222222
2018-07-30T00:56:52.017Z,22.1666666667
2018-07-30T00:57:05.160Z,22.1666666667
2018-07-30T00:57:17.570Z,22.1666666667
2018-07-30T00:57:29.973Z,22.1666666667
2018-07-30T00:57:42.372Z,22.1666666667
2018-07-30T00:57:54.791Z,22.1666666667
2018-07-30T00:58:07.467Z,22.1666666667
2018-07-30T00:58:19.859Z,22.1666666667
2018-07-30T00:58:32.268Z,22.1666666667
2018-07-30T00:58:44.665Z,22.1666666667
2018-07-30T00:58:57.073Z,22.1666666667
2018-07-30T00:59:09.506Z,22.1666666667
2018-07-30T00:59:21.924Z,22.1666666667
2018-07-30T00:59:34.369Z,22.1666666667
2018-07-30T00:59:46.759Z,22.1666666667
2018-07-30T00:59:59.187Z,22.1666666667
2018-07-30T01:00:11.610Z,22.1666666667
2018-07-30T01:00:24.047Z,22.1666666667
2018-07-30T01:00:36.486Z,22.1666666667
2018-07-30T01:00:49.077Z,22.1666666667
2018-07-30T01:01:01.505Z,22.1666666667
2018-07-30T01:01:13.920Z,22.1666666667
2018-07-30T01:01:26.317Z,22.1666666667
2018-07-30T01:01:38.730Z,22.1666666667
2018-07-30T01:01:51.134Z,22.1666666667
2018-07-30T01:02:03.550Z,22.1111111111
2018-07-30T01:02:16.239Z,22.1666666667
2018-07-30T01:02:28.738Z,22.1111111111
2018-07-30T01:02:41.160Z,22.1111111111
2018-07-30T01:02:53.566Z,22.1111111111
2018-07-30T01:03:05.995Z,22.1666666667
2018-07-30T01:03:18.391Z,22.1111111111
2018-07-30T01:03:30.809Z,22.1111111111
2018-07-30T01:03:43.221Z,22.1111111111
2018-07-30T01:03:55.634Z,22.1111111111
2018-07-30T01:04:08.062Z,22.1111111111
2018-07-30T01:04:20.515Z,22.1111111111
2018-07-30T01:04:32.932Z,22.0555555556
2018-07-30T01:04:45.335Z,22.0555555556
2018-07-30T01:04:57.764Z,22.0555555556
2018-07-30T01:05:10.189Z,22.0555555556
2018-07-30T01:05:22.601Z,22.0555555556
2018-07-30T01:05:35.025Z,22.0555555556
2018-07-30T01:05:47.478Z,22.0555555556
2018-07-30T01:05:59.900Z,22.0555555556
2018-07-30T01:06:12.315Z,22.0555555556
2018-07-30T01:06:24.712Z,22.0555555556
2018-07-30T01:06:37.116Z,22.0555555556
2018-07-30T01:06:49.547Z,22
2018-07-30T01:07:01.944Z,22
2018-07-30T01:07:14.463Z,22
2018-07-30T01:07:26.894Z,22
2018-07-30T01:07:39.670Z,22
2018-07-30T01:07:52.610Z,22
2018-07-30T01:08:05.068Z,22.0555555556
2018-07-30T01:08:17.500Z,22
2018-07-30T01:08:29.886Z,22
2018-07-30T01:08:42.295Z,22
2018-07-30T01:08:54.741Z,22
2018-07-30T01:09:07.272Z,22
2018-07-30T01:09:19.670Z,22
2018-07-30T01:09:32.089Z,22
2018-07-30T01:09:44.500Z,22
2018-07-30T01:09:56.897Z,22
2018-07-30T01:10:09.290Z,22
2018-07-30T01:10:21.686Z,22
2018-07-30T01:10:34.084Z,21.9444444444
2018-07-30T01:10:46.489Z,21.9444444444
2018-07-30T01:10:58.863Z,21.9444444444
2018-07-30T01:11:11.276Z,22
2018-07-30T01:11:23.677Z,22
2018-07-30T01:11:36.063Z,21.9444444444
2018-07-30T01:11:48.535Z,21.9444444444
2018-07-30T01:12:00.924Z,21.9444444444
2018-07-30T01:12:13.317Z,21.9444444444
2018-07-30T01:12:25.736Z,21.9444444444
2018-07-30T01:12:38.158Z,21.9444444444
2018-07-30T01:12:50.546Z,21.9444444444
2018-07-30T01:13:02.944Z,21.9444444444
2018-07-30T01:13:15.376Z,21.9444444444
2018-07-30T01:13:27.788Z,21.9444444444
2018-07-30T01:13:40.201Z,21.9444444444
2018-07-30T01:13:52.630Z,21.9444444444
2018-07-30T01:14:05.035Z,21.9444444444
2018-07-30T01:14:17.626Z,21.9444444444
2018-07-30T01:14:31.005Z,21.9444444444
2018-07-30T01:14:43.525Z,21.9444444444
2018-07-30T01:14:55.930Z,21.9444444444
2018-07-30T01:15:08.333Z,21.9444444444
2018-07-30T01:15:20.719Z,21.9444444444
2018-07-30T01:15:33.131Z,21.9444444444
2018-07-30T01:15:45.563Z,21.9444444444
2018-07-30T01:15:57.971Z,21.9444444444
2018-07-30T01:16:10.407Z,21.9444444444
2018-07-30T01:16:22.821Z,21.9444444444
2018-07-30T01:16:35.235Z,21.9444444444
2018-07-30T01:16:47.646Z,21.9444444444
2018-07-30T01:17:00.047Z,21.9444444444
2018-07-30T01:17:12.436Z,21.9444444444
2018-07-30T01:17:24.846Z,21.9444444444
2018-07-30T01:17:37.235Z,21.9444444444
2018-07-30T01:17:49.631Z,21.9444444444
2018-07-30T01:18:02.084Z,21.9444444444
2018-07-30T01:18:14.478Z,21.9444444444
2018-07-30T01:18:26.879Z,21.9444444444
2018-07-30T01:18:39.286Z,21.9444444444
2018-07-30T01:18:51.696Z,21.9444444444
2018-07-30T01:19:04.107Z,21.9444444444
2018-07-30T01:19:16.495Z,21.9444444444
2018-07-30T01:19:29.017Z,22
2018-07-30T01:19:41.512Z,21.9444444444
2018-07-30T01:19:53.914Z,21.9444444444
2018-07-30T01:20:06.316Z,21.9444444444
2018-07-30T01:20:18.826Z,21.9444444444
2018-07-30T01:20:31.232Z,21.9444444444
2018-07-30T01:20:43.676Z,21.9444444444
2018-07-30T01:20:56.058Z,22
2018-07-30T01:21:08.448Z,21.9444444444
2018-07-30T01:21:20.847Z,21.9444444444
2018-07-30T01:21:33.355Z,21.9444444444
2018-07-30T01:21:46.705Z,21.9444444444
2018-07-30T01:21:59.111Z,21.9444444444
2018-07-30T01:22:11.527Z,21.9444444444
2018-07-30T01:22:23.945Z,22
2018-07-30T01:22:36.354Z,21.9444444444
2018-07-30T01:22:48.750Z,21.9444444444
2018-07-30T01:23:01.147Z,21.9444444444
2018-07-30T01:23:13.745Z,21.9444444444
2018-07-30T01:23:26.151Z,22
2018-07-30T01:23:38.521Z,22
2018-07-30T01:23:50.933Z,22
2018-07-30T01:24:03.388Z,21.9444444444
2018-07-30T01:24:15.813Z,21.9444444444
2018-07-30T01:24:28.203Z,22
2018-07-30T01:24:40.620Z,22
2018-07-30T01:24:53.061Z,22
2018-07-30T01:25:05.465Z,22
2018-07-30T01:25:17.873Z,22
2018-07-30T01:25:30.280Z,22
2018-07-30T01:25:42.682Z,21.9444444444
2018-07-30T01:25:55.122Z,22
2018-07-30T01:26:07.530Z,21.9444444444
2018-07-30T01:26:19.920Z,22
2018-07-30T01:26:32.467Z,22
2018-07-30T01:26:44.866Z,22
2018-07-30T01:26:57.265Z,22
2018-07-30T01:27:09.657Z,21.9444444444
2018-07-30T01:27:22.081Z,22
2018-07-30T01:27:34.498Z,22
2018-07-30T01:27:46.894Z,21.9444444444
2018-07-30T01:27:59.316Z,21.9444444444
2018-07-30T01:28:11.709Z,21.9444444444
2018-07-30T01:28:24.224Z,21.9444444444
2018-07-30T01:28:36.614Z,21.9444444444
2018-07-30T01:28:49.055Z,22
2018-07-30T01:29:01.447Z,22
2018-07-30T01:29:13.852Z,21.9444444444
2018-07-30T01:29:26.251Z,21.9444444444
2018-07-30T01:29:38.684Z,21.9444444444
2018-07-30T01:29:51.101Z,21.9444444444
2018-07-30T01:30:03.503Z,21.9444444444
2018-07-30T01:30:15.911Z,21.9444444444
2018-07-30T01:30:28.323Z,21.9444444444
2018-07-30T01:30:40.718Z,21.9444444444
2018-07-30T01:30:53.117Z,21.9444444444
2018-07-30T01:31:05.509Z,21.9444444444
2018-07-30T01:31:17.909Z,21.9444444444
2018-07-30T01:31:30.319Z,21.8888888889
2018-07-30T01:31:42.747Z,21.9444444444
2018-07-30T01:31:55.155Z,21.9444444444
2018-07-30T01:32:07.567Z,21.9444444444
2018-07-30T01:32:19.974Z,21.9444444444
2018-07-30T01:32:32.367Z,21.9444444444
2018-07-30T01:32:44.781Z,21.9444444444
2018-07-30T01:32:57.181Z,21.8888888889
2018-07-30T01:33:09.578Z,21.8888888889
2018-07-30T01:33:22.004Z,21.8888888889
2018-07-30T01:33:34.416Z,21.8888888889
2018-07-30T01:33:46.806Z,21.8888888889
2018-07-30T01:33:59.213Z,21.8888888889
2018-07-30T01:34:11.644Z,21.8888888889
2018-07-30T01:34:24.042Z,21.8888888889
2018-07-30T01:34:36.512Z,21.8888888889
2018-07-30T01:34:48.972Z,21.8888888889
2018-07-30T01:35:01.389Z,21.8888888889
2018-07-30T01:35:13.800Z,21.8888888889
2018-07-30T01:35:26.202Z,21.8888888889
2018-07-30T01:35:38.617Z,21.8333333333
2018-07-30T01:35:51.039Z,21.8888888889
2018-07-30T01:36:03.447Z,21.8333333333
2018-07-30T01:36:15.829Z,21.8333333333
2018-07-30T01:36:28.222Z,21.8888888889
2018-07-30T01:36:40.633Z,21.8333333333
2018-07-30T01:36:53.064Z,21.8333333333
2018-07-30T01:37:05.462Z,21.8888888889
2018-07-30T01:37:18.019Z,21.8333333333
2018-07-30T01:37:30.414Z,21.8333333333
2018-07-30T01:37:42.822Z,21.8333333333
2018-07-30T01:37:55.234Z,21.8333333333
2018-07-30T01:38:07.634Z,21.8333333333
2018-07-30T01:38:20.040Z,21.8333333333
2018-07-30T01:38:32.436Z,21.8333333333
2018-07-30T01:38:44.854Z,21.7777777778
2018-07-30T01:38:57.273Z,21.7777777778
2018-07-30T01:39:09.672Z,21.7777777778
2018-07-30T01:39:22.070Z,21.7777777778
2018-07-30T01:39:34.505Z,21.7777777778
2018-07-30T01:39:46.909Z,21.7777777778
2018-07-30T01:39:59.338Z,21.7777777778
2018-07-30T01:40:11.770Z,21.7777777778
2018-07-30T01:40:24.169Z,21.7777777778
2018-07-30T01:40:36.558Z,21.7777777778
2018-07-30T01:40:48.966Z,21.7777777778
2018-07-30T01:41:01.426Z,21.7777777778
2018-07-30T01:41:13.834Z,21.7777777778
2018-07-30T01:41:26.231Z,21.7777777778
2018-07-30T01:41:38.627Z,21.7222222222
2018-07-30T01:41:51.040Z,21.7222222222
2018-07-30T01:42:03.449Z,21.7222222222
2018-07-30T01:42:15.850Z,21.7222222222
2018-07-30T01:42:28.296Z,21.7222222222
2018-07-30T01:42:40.714Z,21.7222222222
2018-07-30T01:42:53.142Z,21.7222222222
2018-07-30T01:43:05.594Z,21.7222222222
2018-07-30T01:43:18.007Z,21.7222222222
2018-07-30T01:43:30.402Z,21.7222222222
2018-07-30T01:43:42.797Z,21.7222222222
2018-07-30T01:43:55.211Z,21.7222222222
2018-07-30T01:44:07.792Z,21.7222222222
2018-07-30T01:44:20.212Z,21.7222222222
2018-07-30T01:44:32.612Z,21.7222222222
2018-07-30T01:44:45.154Z,21.7222222222
2018-07-30T01:44:57.550Z,21.7222222222
2018-07-30T01:45:09.942Z,21.7222222222
2018-07-30T01:45:22.337Z,21.7222222222
2018-07-30T01:45:34.791Z,21.7222222222
2018-07-30T01:45:47.180Z,21.7222222222
2018-07-30T01:45:59.595Z,21.7222222222
2018-07-30T01:46:12.003Z,21.7222222222
2018-07-30T01:46:24.408Z,21.7222222222
2018-07-30T01:46:36.812Z,21.7222222222
2018-07-30T01:46:49.195Z,21.7222222222
2018-07-30T01:47:01.584Z,21.7222222222
2018-07-30T01:47:13.987Z,21.7222222222
2018-07-30T01:47:26.438Z,21.7222222222
2018-07-30T01:47:38.847Z,21.7222222222
2018-07-30T01:47:51.261Z,21.7222222222
2018-07-30T01:48:03.665Z,21.7222222222
2018-07-30T01:48:16.084Z,21.7222222222
2018-07-30T01:48:28.491Z,21.7222222222
2018-07-30T01:48:40.882Z,21.7222222222
2018-07-30T01:48:53.468Z,21.7222222222
2018-07-30T01:49:05.856Z,21.7777777778
2018-07-30T01:49:18.246Z,21.7222222222
2018-07-30T01:49:30.692Z,21.7777777778
2018-07-30T01:49:43.093Z,21.7222222222
2018-07-30T01:49:55.498Z,21.7222222222
2018-07-30T01:50:07.901Z,21.7777777778
2018-07-30T01:50:20.284Z,21.7777777778
2018-07-30T01:50:32.691Z,21.7222222222
2018-07-30T01:50:45.094Z,21.7222222222
2018-07-30T01:50:57.492Z,21.7777777778
2018-07-30T01:51:09.880Z,21.7222222222
2018-07-30T01:51:22.306Z,21.7777777778
2018-07-30T01:51:34.694Z,21.7777777778
2018-07-30T01:51:47.108Z,21.7777777778
2018-07-30T01:51:59.514Z,21.7777777778
2018-07-30T01:52:11.915Z,21.7777777778
2018-07-30T01:52:24.312Z,21.7777777778
2018-07-30T01:52:36.723Z,21.7777777778
2018-07-30T01:52:49.128Z,21.7222222222
2018-07-30T01:53:01.534Z,21.7777777778
2018-07-30T01:53:13.937Z,21.7777777778
2018-07-30T01:53:26.376Z,21.7222222222
2018-07-30T01:53:38.777Z,21.7777777778
2018-07-30T01:53:51.228Z,21.7222222222
2018-07-30T01:54:03.628Z,21.7222222222
2018-07-30T01:54:16.028Z,21.7222222222
2018-07-30T01:54:28.454Z,21.7777777778
2018-07-30T01:54:40.830Z,21.7222222222
2018-07-30T01:54:53.214Z,21.7777777778
2018-07-30T01:55:05.624Z,21.7222222222
2018-07-30T01:55:18.053Z,21.7222222222
2018-07-30T01:55:30.968Z,21.7222222222
2018-07-30T01:55:44.011Z,21.7222222222
2018-07-30T01:55:56.415Z,21.7222222222
2018-07-30T01:56:09.129Z,21.7222222222
2018-07-30T01:56:21.545Z,21.7777777778
2018-07-30T01:56:33.940Z,21.7222222222
2018-07-30T01:56:46.394Z,21.7222222222
2018-07-30T01:56:58.797Z,21.7222222222
2018-07-30T01:57:11.214Z,21.7222222222
2018-07-30T01:57:23.601Z,21.7222222222
2018-07-30T01:57:36.001Z,21.7777777778
2018-07-30T01:57:48.398Z,21.7222222222
2018-07-30T01:58:00.801Z,21.7777777778
2018-07-30T01:58:13.424Z,21.7222222222
2018-07-30T01:58:25.826Z,21.7222222222
2018-07-30T01:58:38.237Z,21.7222222222
2018-07-30T01:58:50.754Z,21.7777777778
2018-07-30T01:59:03.142Z,21.7777777778
2018-07-30T01:59:15.553Z,21.7222222222
2018-07-30T01:59:27.941Z,21.7777777778
2018-07-30T01:59:40.353Z,21.7222222222
2018-07-30T01:59:52.770Z,21.7222222222
2018-07-30T02:00:05.172Z,21.7222222222
2018-07-30T02:00:17.596Z,21.7777777778
2018-07-30T02:00:30.020Z,21.7222222222
2018-07-30T02:00:42.470Z,21.7222222222
2018-07-30T02:00:55.101Z,21.7222222222
2018-07-30T02:01:07.536Z,21.7222222222
2018-07-30T02:01:19.938Z,21.7222222222
2018-07-30T02:01:32.340Z,21.7222222222
2018-07-30T02:01:44.788Z,21.7222222222
2018-07-30T02:01:57.186Z,21.7222222222
2018-07-30T02:02:09.763Z,21.7222222222
2018-07-30T02:02:22.343Z,21.7222222222
2018-07-30T02:02:34.734Z,21.7222222222
2018-07-30T02:02:47.139Z,21.7222222222
2018-07-30T02:02:59.677Z,21.7222222222
2018-07-30T02:03:12.074Z,21.7222222222
2018-07-30T02:03:24.488Z,21.7222222222
2018-07-30T02:03:36.896Z,21.7222222222
2018-07-30T02:03:49.310Z,21.7222222222
2018-07-30T02:04:01.725Z,21.7222222222
2018-07-30T02:04:14.151Z,21.7222222222
2018-07-30T02:04:26.546Z,21.7222222222
2018-07-30T02:04:38.990Z,21.7222222222
2018-07-30T02:04:51.381Z,21.7222222222
2018-07-30T02:05:03.788Z,21.7222222222
2018-07-30T02:05:16.206Z,21.7222222222
2018-07-30T02:05:28.597Z,21.7222222222
2018-07-30T02:05:40.998Z,21.7222222222
2018-07-30T02:05:53.421Z,21.7222222222
2018-07-30T02:06:05.846Z,21.7222222222
2018-07-30T02:06:18.380Z,21.7222222222
2018-07-30T02:06:30.797Z,21.7222222222
2018-07-30T02:06:43.197Z,21.7222222222
2018-07-30T02:06:55.590Z,21.6666666667
2018-07-30T02:07:08.263Z,21.6666666667
2018-07-30T02:07:20.759Z,21.7222222222
2018-07-30T02:07:33.163Z,21.6666666667
2018-07-30T02:07:45.564Z,21.6666666667
2018-07-30T02:07:57.960Z,21.6666666667
2018-07-30T02:08:10.347Z,21.6666666667
2018-07-30T02:08:22.741Z,21.6666666667
2018-07-30T02:08:35.118Z,21.6666666667
2018-07-30T02:08:47.521Z,21.6666666667
2018-07-30T02:08:59.909Z,21.6666666667
2018-07-30T02:09:12.313Z,21.6666666667
2018-07-30T02:09:24.703Z,21.6666666667
2018-07-30T02:09:37.096Z,21.6666666667
2018-07-30T02:09:49.563Z,21.6666666667
2018-07-30T02:10:01.973Z,21.6666666667
2018-07-30T02:10:14.358Z,21.6666666667
2018-07-30T02:10:26.758Z,21.6666666667
2018-07-30T02:10:39.173Z,21.6666666667
2018-07-30T02:10:51.569Z,21.6666666667
2018-07-30T02:11:03.956Z,21.6111111111